Time;durP1;ratioP1;P1;durP2;ratioP2;P2;SDS_P1;SDS_P2;PMS_P1;PMS_P2;Temp;Humidity;BMP_temperature;BMP_pressure;BME280_temperature;BME280_humidity;BME280_pressure;Samples;Min_cycle;Max_cycle;Signal;HPM_P1;HPM_P2
2021/12/06 00:01:05;;;;;;;36.40;10.33;;;2.70;97.30;;;;;;4979355;28;20422;-79
2021/12/06 00:03:38;;;;;;;29.73;10.97;;;2.70;97.30;;;;;;4978252;28;20429;-80
2021/12/06 00:06:04;;;;;;;31.60;11.43;;;2.70;97.30;;;;;;4978251;28;20503;-80
2021/12/06 00:08:30;;;;;;;41.37;11.30;;;2.70;97.30;;;;;;4978488;28;20418;-78
2021/12/06 00:10:56;;;;;;;36.47;10.80;;;2.70;97.30;;;;;;4978209;28;20818;-79
2021/12/06 00:13:23;;;;;;;30.17;11.70;;;2.70;97.30;;;;;;4978259;28;20457;-80
2021/12/06 00:15:50;;;;;;;38.57;11.33;;;2.70;97.30;;;;;;4978138;28;20202;-79
2021/12/06 00:18:17;;;;;;;36.60;12.13;;;2.70;97.30;;;;;;4978768;28;21252;-79
2021/12/06 00:20:44;;;;;;;35.70;11.47;;;2.70;97.30;;;;;;4977711;28;20418;-80
2021/12/06 00:23:10;;;;;;;31.73;11.17;;;2.70;97.30;;;;;;4978444;28;20665;-79
2021/12/06 00:25:35;;;;;;;34.23;10.00;;;2.80;97.30;;;;;;4977784;28;20504;-80
2021/12/06 00:28:01;;;;;;;28.10;10.00;;;2.70;97.30;;;;;;4978687;28;20186;-79
2021/12/06 00:30:27;;;;;;;27.77;8.67;;;2.70;97.30;;;;;;4977696;28;20201;-79
2021/12/06 00:32:53;;;;;;;25.00;8.83;;;2.60;97.30;;;;;;4978469;28;20843;-80
2021/12/06 00:35:22;;;;;;;25.10;9.10;;;2.60;97.30;;;;;;4977886;28;20185;-80
2021/12/06 00:37:55;;;;;;;25.47;9.23;;;2.60;97.30;;;;;;4977684;28;20190;-80
2021/12/06 00:40:22;;;;;;;24.73;9.20;;;2.50;97.30;;;;;;4977825;28;20414;-77
2021/12/06 00:42:48;;;;;;;24.87;9.47;;;2.50;97.30;;;;;;4977141;28;20461;-78
2021/12/06 00:45:14;;;;;;;29.63;9.70;;;2.50;97.30;;;;;;4977933;28;20444;-79
2021/12/06 00:47:39;;;;;;;27.23;9.10;;;2.50;97.30;;;;;;4979122;28;20438;-77
2021/12/06 00:50:06;;;;;;;25.53;9.60;;;2.50;97.30;;;;;;4977743;28;20442;-81
2021/12/06 00:52:32;;;;;;;20.23;7.87;;;2.40;97.30;;;;;;4977770;28;20187;-78
2021/12/06 00:54:58;;;;;;;26.77;9.30;;;2.40;97.30;;;;;;4977516;28;20454;-80
2021/12/06 00:57:23;;;;;;;20.80;7.83;;;2.40;97.30;;;;;;4977396;28;20429;-80
2021/12/06 00:59:50;;;;;;;19.83;8.50;;;2.40;97.30;;;;;;4977364;28;20185;-79
2021/12/06 01:02:16;;;;;;;28.90;9.10;;;2.40;97.30;;;;;;4977174;28;20198;-79
2021/12/06 01:04:43;;;;;;;24.23;10.13;;;2.30;97.30;;;;;;4976701;28;21022;-80
2021/12/06 01:07:10;;;;;;;28.17;9.03;;;2.40;97.30;;;;;;4977256;28;20975;-79
2021/12/06 01:09:36;;;;;;;27.67;10.07;;;2.40;97.30;;;;;;4977165;28;20517;-80
2021/12/06 01:12:02;;;;;;;33.37;11.00;;;2.40;97.30;;;;;;4976215;28;20458;-78
2021/12/06 01:14:28;;;;;;;29.17;9.80;;;2.40;97.30;;;;;;4976982;28;20485;-79
2021/12/06 01:16:53;;;;;;;28.17;9.47;;;2.40;97.30;;;;;;4977918;28;20441;-79
2021/12/06 01:19:19;;;;;;;29.60;10.10;;;2.40;97.30;;;;;;4977347;28;20313;-77
2021/12/06 01:21:52;;;;;;;31.20;11.17;;;2.30;97.30;;;;;;4976795;28;20181;-80
2021/12/06 01:24:25;;;;;;;31.53;10.20;;;2.30;97.30;;;;;;4976219;28;20228;-80
2021/12/06 01:27:25;;;;;;;33.53;12.20;;;2.40;97.30;;;;;;4976654;28;20540;-80
2021/12/06 01:40:18;;;;;;;36.20;11.20;;;2.40;97.30;;;;;;4978441;28;20460;-81
2021/12/06 01:42:44;;;;;;;43.43;12.90;;;2.40;97.30;;;;;;4976089;28;20421;-80
2021/12/06 01:45:09;;;;;;;41.97;11.67;;;2.40;97.30;;;;;;4976876;28;20426;-78
2021/12/06 01:47:37;;;;;;;31.93;9.73;;;2.40;97.30;;;;;;4976147;28;20233;-80
2021/12/06 01:50:38;;;;;;;39.53;11.53;;;2.40;97.30;;;;;;4978170;28;20266;-80
2021/12/06 01:53:05;;;;;;;40.20;11.07;;;2.40;97.30;;;;;;4938800;29;20414;-79
2021/12/06 01:55:37;;;;;;;36.67;10.50;;;2.40;97.30;;;;;;4969055;28;20414;-80
2021/12/06 01:58:05;;;;;;;43.70;12.90;;;2.40;97.30;;;;;;4976129;28;20445;-80
2021/12/06 02:00:33;;;;;;;44.13;12.20;;;2.40;97.30;;;;;;4976425;28;20420;-80
2021/12/06 02:02:59;;;;;;;45.30;12.67;;;2.40;97.30;;;;;;4976362;28;20424;-78
2021/12/06 02:05:25;;;;;;;45.60;11.93;;;2.40;97.30;;;;;;4976229;28;20442;-80
2021/12/06 02:07:51;;;;;;;48.23;12.70;;;2.40;97.30;;;;;;4975982;28;20226;-80
2021/12/06 02:10:17;;;;;;;51.90;14.80;;;2.40;97.30;;;;;;4976261;28;20210;-77
2021/12/06 02:12:46;;;;;;;43.97;13.07;;;2.40;97.30;;;;;;4977123;28;20406;-80
2021/12/06 02:18:05;;;;;;;43.10;12.30;;;2.40;97.30;;;;;;4977441;28;20397;-79
2021/12/06 02:20:36;;;;;;;38.93;12.73;;;2.40;97.30;;;;;;4975975;28;20410;-79
2021/12/06 02:23:02;;;;;;;46.67;14.13;;;2.40;97.30;;;;;;4977795;28;20756;-78
2021/12/06 02:25:28;;;;;;;38.43;11.87;;;2.40;97.30;;;;;;4975672;28;20500;-79
2021/12/06 02:27:55;;;;;;;56.07;15.73;;;2.30;97.30;;;;;;4976908;28;20414;-78
2021/12/06 02:30:21;;;;;;;55.30;17.00;;;2.30;97.30;;;;;;4975706;28;20996;-79
2021/12/06 02:32:48;;;;;;;87.53;19.03;;;2.20;97.30;;;;;;4977153;28;20848;-79
2021/12/06 02:35:18;;;;;;;61.40;18.47;;;2.20;97.30;;;;;;4992201;28;20461;-80
2021/12/06 02:37:45;;;;;;;67.03;19.60;;;2.20;97.30;;;;;;4975533;28;20967;-80
2021/12/06 02:40:20;;;;;;;60.07;18.90;;;2.20;97.30;;;;;;4976140;28;20422;-79
2021/12/06 02:42:46;;;;;;;62.00;18.13;;;2.20;97.30;;;;;;4975993;28;20472;-80
2021/12/06 02:45:16;;;;;;;73.93;20.87;;;2.20;97.30;;;;;;4975776;28;20426;-80
2021/12/06 02:47:42;;;;;;;76.07;18.40;;;2.10;97.30;;;;;;4975709;28;20553;-80
2021/12/06 02:50:10;;;;;;;68.90;15.83;;;2.10;97.30;;;;;;4976865;28;20425;-78
2021/12/06 02:52:39;;;;;;;68.97;17.43;;;2.10;97.30;;;;;;4975566;28;20449;-77
2021/12/06 02:55:22;;;;;;;70.07;17.17;;;2.10;97.30;;;;;;4975761;28;20506;-79
2021/12/06 02:57:54;;;;;;;70.50;21.13;;;2.10;97.30;;;;;;4975867;28;21014;-78
2021/12/06 03:00:20;;;;;;;83.60;22.13;;;2.10;97.30;;;;;;4977283;28;20461;-80
2021/12/06 03:02:46;;;;;;;74.63;19.57;;;2.10;97.30;;;;;;4975861;28;20480;-80
2021/12/06 03:05:12;;;;;;;81.70;21.03;;;2.10;97.30;;;;;;4979588;28;20433;-79
2021/12/06 03:07:38;;;;;;;57.37;17.20;;;2.10;97.30;;;;;;4980585;28;20196;-80
2021/12/06 03:10:06;;;;;;;62.00;17.67;;;2.10;97.30;;;;;;4978976;28;20460;-79
2021/12/06 03:12:32;;;;;;;68.80;18.87;;;2.10;97.30;;;;;;4979076;28;20436;-79
2021/12/06 03:14:59;;;;;;;85.90;21.10;;;2.10;97.30;;;;;;4978886;28;20465;-80
2021/12/06 03:17:28;;;;;;;81.73;20.17;;;2.10;97.30;;;;;;4979001;28;20434;-80
2021/12/06 03:19:54;;;;;;;86.93;18.37;;;2.00;97.30;;;;;;4981001;28;20418;-80
2021/12/06 03:22:21;;;;;;;68.37;19.00;;;2.00;97.30;;;;;;4979020;28;20420;-77
2021/12/06 03:24:47;;;;;;;81.30;19.30;;;2.00;97.30;;;;;;4980619;28;20484;-79
2021/12/06 03:27:14;;;;;;;75.37;19.60;;;1.90;97.30;;;;;;4979529;28;20445;-80
2021/12/06 03:29:42;;;;;;;73.20;18.93;;;1.90;97.30;;;;;;4979338;28;20213;-79
2021/12/06 03:32:08;;;;;;;71.97;19.07;;;1.80;97.30;;;;;;4978789;28;20433;-80
2021/12/06 03:34:34;;;;;;;69.73;20.57;;;1.80;97.30;;;;;;4977680;28;20465;-81
2021/12/06 03:37:04;;;;;;;63.10;17.87;;;1.80;97.30;;;;;;4977830;28;20753;-79
2021/12/06 03:39:37;;;;;;;60.67;18.60;;;1.70;97.30;;;;;;4976958;28;20185;-79
2021/12/06 03:42:07;;;;;;;61.87;16.30;;;1.70;97.30;;;;;;4978114;28;21035;-79
2021/12/06 03:44:33;;;;;;;64.27;18.10;;;1.70;97.30;;;;;;4977904;28;20418;-80
2021/12/06 03:47:12;;;;;;;61.10;16.60;;;1.60;97.30;;;;;;4978150;28;20967;-79
2021/12/06 03:49:38;;;;;;;55.37;15.23;;;1.60;97.30;;;;;;4978105;28;20445;-79
2021/12/06 03:52:04;;;;;;;54.40;15.47;;;1.50;97.30;;;;;;4980254;28;20441;-79
2021/12/06 03:54:31;;;;;;;50.40;15.07;;;1.50;97.30;;;;;;4977994;28;20484;-79
2021/12/06 03:56:58;;;;;;;45.70;15.20;;;1.40;97.30;;;;;;4978134;28;20538;-77
2021/12/06 03:59:24;;;;;;;31.47;12.87;;;1.40;97.30;;;;;;4978283;28;20448;-80
2021/12/06 04:01:52;;;;;;;48.27;14.60;;;1.30;97.30;;;;;;4978233;28;20437;-78
2021/12/06 04:04:18;;;;;;;33.70;13.00;;;1.20;97.30;;;;;;4978261;28;20440;-79
2021/12/06 04:06:44;;;;;;;33.77;12.63;;;1.20;97.30;;;;;;4979191;28;20442;-80
2021/12/06 04:09:11;;;;;;;35.43;12.00;;;1.20;97.30;;;;;;4979262;28;20444;-81
2021/12/06 04:11:38;;;;;;;28.13;11.30;;;1.20;97.30;;;;;;4977268;28;20433;-80
2021/12/06 04:14:05;;;;;;;33.20;11.50;;;1.20;97.30;;;;;;4978377;28;20464;-79
2021/12/06 04:16:30;;;;;;;38.60;14.30;;;1.20;97.30;;;;;;4978215;28;20449;-80
2021/12/06 04:18:56;;;;;;;45.03;13.30;;;1.20;97.30;;;;;;4978499;28;20782;-79
2021/12/06 04:21:24;;;;;;;43.87;13.20;;;1.20;97.30;;;;;;4978483;28;20277;-80
2021/12/06 04:23:50;;;;;;;35.57;14.23;;;1.20;97.30;;;;;;4979183;28;20186;-79
2021/12/06 04:26:17;;;;;;;32.50;13.90;;;1.20;97.30;;;;;;4979228;28;20528;-80
2021/12/06 04:28:47;;;;;;;39.70;13.37;;;1.20;97.30;;;;;;4978848;28;20422;-79
2021/12/06 04:31:16;;;;;;;35.23;14.13;;;1.20;97.30;;;;;;4978420;28;20418;-80
2021/12/06 04:33:42;;;;;;;41.23;13.50;;;1.20;97.30;;;;;;4977751;28;20461;-81
2021/12/06 04:36:08;;;;;;;45.83;16.97;;;1.20;97.30;;;;;;4978385;28;20541;-80
2021/12/06 04:38:34;;;;;;;36.73;13.90;;;1.20;97.30;;;;;;4994975;28;20277;-81
2021/12/06 04:41:00;;;;;;;45.53;13.87;;;1.20;97.30;;;;;;4978142;28;20425;-79
2021/12/06 04:43:25;;;;;;;34.80;12.73;;;1.20;97.30;;;;;;4978445;28;20444;-80
2021/12/06 04:45:51;;;;;;;39.67;14.00;;;1.20;97.30;;;;;;4977912;28;20222;-79
2021/12/06 04:48:17;;;;;;;38.87;12.87;;;1.20;97.30;;;;;;4979029;28;20233;-81
2021/12/06 04:50:43;;;;;;;34.40;13.27;;;1.20;97.30;;;;;;4978375;28;20183;-80
2021/12/06 04:53:16;;;;;;;37.10;13.40;;;1.10;97.30;;;;;;4978354;28;20430;-81
2021/12/06 04:56:12;;;;;;;47.43;14.67;;;1.10;97.30;;;;;;4977672;28;20437;-79
2021/12/06 04:58:44;;;;;;;38.83;13.90;;;1.10;97.30;;;;;;4979060;28;20693;-81
2021/12/06 05:01:16;;;;;;;32.60;13.07;;;1.10;97.30;;;;;;4979258;28;20437;-80
2021/12/06 05:03:41;;;;;;;31.80;13.07;;;1.10;97.30;;;;;;4979043;28;20443;-81
2021/12/06 05:06:14;;;;;;;35.10;12.67;;;1.20;97.30;;;;;;4979706;28;20797;-80
2021/12/06 05:08:43;;;;;;;37.47;14.07;;;1.20;97.30;;;;;;4978989;28;20209;-80
2021/12/06 05:11:10;;;;;;;35.23;13.67;;;1.20;97.30;;;;;;4978572;28;20764;-80
2021/12/06 05:13:38;;;;;;;37.40;13.83;;;1.20;97.30;;;;;;4978652;28;20481;-78
2021/12/06 05:16:04;;;;;;;37.27;13.67;;;1.20;97.30;;;;;;4979941;28;20444;-80
2021/12/06 05:18:29;;;;;;;36.87;13.67;;;1.20;97.30;;;;;;4979465;28;20871;-80
2021/12/06 05:20:55;;;;;;;47.33;14.90;;;1.20;97.30;;;;;;4979877;28;20174;-80
2021/12/06 05:23:21;;;;;;;29.20;11.57;;;1.20;97.30;;;;;;4979967;28;20179;-80
2021/12/06 05:25:47;;;;;;;37.27;12.90;;;1.20;97.30;;;;;;4979037;28;20282;-79
2021/12/06 05:28:13;;;;;;;38.93;16.00;;;1.20;97.30;;;;;;4979066;28;20186;-80
2021/12/06 05:30:42;;;;;;;43.17;13.53;;;1.20;97.30;;;;;;4980585;28;20489;-80
2021/12/06 05:33:09;;;;;;;34.50;14.27;;;1.20;97.30;;;;;;4980237;28;20442;-80
2021/12/06 05:35:35;;;;;;;38.87;14.37;;;1.20;97.30;;;;;;4978643;28;20426;-79
2021/12/06 05:38:02;;;;;;;38.30;14.47;;;1.20;97.30;;;;;;4978998;28;20426;-79
2021/12/06 05:40:33;;;;;;;30.83;13.70;;;1.20;97.30;;;;;;4978336;28;20445;-79
2021/12/06 05:43:00;;;;;;;38.70;13.53;;;1.20;97.30;;;;;;4976436;28;20439;-80
2021/12/06 05:45:29;;;;;;;32.17;13.27;;;1.20;97.30;;;;;;4977658;28;20449;-78
2021/12/06 05:47:56;;;;;;;36.20;13.20;;;1.20;97.30;;;;;;4978853;28;20434;-79
2021/12/06 05:50:23;;;;;;;42.50;13.83;;;1.20;97.30;;;;;;4975929;28;20429;-78
2021/12/06 05:52:52;;;;;;;36.27;12.97;;;1.20;97.30;;;;;;4975848;28;20861;-78
2021/12/06 05:55:19;;;;;;;34.83;12.20;;;1.30;97.30;;;;;;4974924;28;20462;-79
2021/12/06 05:57:45;;;;;;;37.57;14.80;;;1.30;97.30;;;;;;4975994;28;20492;-79
2021/12/06 06:00:14;;;;;;;39.93;12.37;;;1.30;97.30;;;;;;4975248;28;20493;-79
2021/12/06 06:02:41;;;;;;;40.37;12.90;;;1.20;97.30;;;;;;4974752;28;20520;-78
2021/12/06 06:05:07;;;;;;;38.80;14.03;;;1.30;97.30;;;;;;4974288;28;20454;-77
2021/12/06 06:07:33;;;;;;;41.37;14.90;;;1.20;97.30;;;;;;4974314;28;20921;-79
2021/12/06 06:10:00;;;;;;;45.90;14.40;;;1.20;97.30;;;;;;4974565;28;20923;-78
2021/12/06 06:12:26;;;;;;;39.20;14.87;;;1.20;97.30;;;;;;4976204;28;20414;-79
2021/12/06 06:14:53;;;;;;;38.37;13.60;;;1.20;97.30;;;;;;4974220;28;20608;-79
2021/12/06 06:17:20;;;;;;;43.70;14.43;;;1.20;97.30;;;;;;4974602;28;20475;-78
2021/12/06 06:19:54;;;;;;;44.73;15.03;;;1.20;97.30;;;;;;4975058;28;20442;-78
2021/12/06 06:22:20;;;;;;;36.67;13.60;;;1.20;97.30;;;;;;4975723;28;20505;-78
2021/12/06 06:24:46;;;;;;;42.27;14.43;;;1.20;97.30;;;;;;4974413;28;20473;-79
2021/12/06 06:27:12;;;;;;;31.10;12.43;;;1.20;97.30;;;;;;4974880;28;20797;-78
2021/12/06 06:29:38;;;;;;;43.93;15.10;;;1.30;97.30;;;;;;4975310;28;20422;-78
2021/12/06 06:32:05;;;;;;;40.17;14.93;;;1.20;97.30;;;;;;4973893;28;20421;-79
2021/12/06 06:34:33;;;;;;;33.97;13.47;;;1.20;97.30;;;;;;4974154;28;20493;-79
2021/12/06 06:37:04;;;;;;;35.47;14.50;;;1.20;97.30;;;;;;4973946;28;20449;-79
2021/12/06 06:39:33;;;;;;;34.10;11.77;;;1.20;97.30;;;;;;4979312;28;20426;-78
2021/12/06 06:42:00;;;;;;;32.10;12.33;;;1.20;97.30;;;;;;4980171;28;20422;-78
2021/12/06 06:44:26;;;;;;;37.20;13.67;;;1.20;97.30;;;;;;4981120;28;20417;-79
2021/12/06 06:46:52;;;;;;;35.50;11.90;;;1.20;97.30;;;;;;4981485;28;20449;-78
2021/12/06 06:49:19;;;;;;;37.63;12.73;;;1.20;97.30;;;;;;4982126;28;20175;-79
2021/12/06 06:51:47;;;;;;;34.80;13.13;;;1.20;97.30;;;;;;4980607;28;20896;-79
2021/12/06 06:54:14;;;;;;;46.10;13.63;;;1.30;97.30;;;;;;4980278;28;20468;-79
2021/12/06 06:56:40;;;;;;;37.20;14.27;;;1.20;97.30;;;;;;4980746;28;20453;-79
2021/12/06 06:59:06;;;;;;;34.30;14.57;;;1.20;97.30;;;;;;4981063;28;20889;-79
2021/12/06 07:01:32;;;;;;;38.57;12.90;;;1.20;97.30;;;;;;4980168;28;20185;-77
2021/12/06 07:03:58;;;;;;;48.87;17.10;;;1.20;97.30;;;;;;4980017;28;20488;-77
2021/12/06 07:06:26;;;;;;;35.87;13.40;;;1.20;97.30;;;;;;4979874;28;20848;-79
2021/12/06 07:08:54;;;;;;;43.53;14.90;;;1.20;97.30;;;;;;4981640;28;20190;-79
2021/12/06 07:11:20;;;;;;;33.57;13.17;;;1.20;97.30;;;;;;4979715;28;20831;-79
2021/12/06 07:13:47;;;;;;;38.67;14.40;;;1.20;97.30;;;;;;4981274;28;20456;-79
2021/12/06 07:16:15;;;;;;;43.50;14.13;;;1.20;97.30;;;;;;4980313;28;20437;-78
2021/12/06 07:18:41;;;;;;;45.27;14.10;;;1.20;97.30;;;;;;4980913;28;20426;-79
2021/12/06 07:21:08;;;;;;;45.97;14.87;;;1.20;97.30;;;;;;4980756;28;20418;-79
2021/12/06 07:23:38;;;;;;;48.60;15.77;;;1.20;97.30;;;;;;4980484;28;20428;-79
2021/12/06 07:26:05;;;;;;;33.93;13.73;;;1.20;97.30;;;;;;4970008;28;20509;-78
2021/12/06 07:28:31;;;;;;;44.93;15.27;;;1.20;97.30;;;;;;4961137;28;20425;-79
2021/12/06 07:30:58;;;;;;;46.33;13.73;;;1.20;97.30;;;;;;4961570;29;20425;-78
2021/12/06 07:33:25;;;;;;;44.70;14.93;;;1.10;97.30;;;;;;4960045;29;20218;-78
2021/12/06 07:35:51;;;;;;;52.63;13.33;;;1.10;97.30;;;;;;4960996;28;20454;-79
2021/12/06 07:38:17;;;;;;;43.33;14.90;;;1.10;97.30;;;;;;4961551;29;20433;-79
2021/12/06 07:40:43;;;;;;;35.70;14.50;;;1.10;97.30;;;;;;4961748;28;20806;-78
2021/12/06 07:43:10;;;;;;;38.37;13.77;;;1.10;97.30;;;;;;4961285;28;20208;-79
2021/12/06 07:45:36;;;;;;;39.40;14.50;;;1.10;97.30;;;;;;4961028;28;20455;-79
2021/12/06 07:48:02;;;;;;;37.77;13.50;;;1.10;97.30;;;;;;4961009;28;20928;-78
2021/12/06 07:50:28;;;;;;;44.23;15.27;;;1.20;97.30;;;;;;4958026;28;20595;-79
2021/12/06 07:52:54;;;;;;;46.37;14.57;;;1.20;97.30;;;;;;4958080;29;20497;-79
2021/12/06 07:55:21;;;;;;;43.43;13.30;;;1.20;97.30;;;;;;4957301;28;20221;-79
2021/12/06 07:57:48;;;;;;;46.83;14.00;;;1.20;97.30;;;;;;4957254;28;20542;-79
2021/12/06 08:00:20;;;;;;;34.33;13.63;;;1.20;97.30;;;;;;4957198;29;20423;-78
2021/12/06 08:02:46;;;;;;;43.00;14.57;;;1.20;97.30;;;;;;4956629;29;20879;-79
2021/12/06 08:08:13;;;;;;;38.40;14.63;;;1.20;97.30;;;;;;4958380;29;20409;-79
2021/12/06 08:10:43;;;;;;;47.27;15.50;;;1.20;97.30;;;;;;4957832;28;20421;-79
2021/12/06 08:13:10;;;;;;;35.50;14.50;;;1.20;97.30;;;;;;4956477;29;20423;-79
2021/12/06 08:15:36;;;;;;;39.33;14.93;;;1.20;97.30;;;;;;4956817;28;20799;-79
2021/12/06 08:18:03;;;;;;;44.23;15.67;;;1.20;97.30;;;;;;4957691;28;20434;-80
2021/12/06 08:20:28;;;;;;;36.90;14.33;;;1.20;97.30;;;;;;4958511;29;20441;-80
2021/12/06 08:22:54;;;;;;;44.80;15.13;;;1.20;97.30;;;;;;4957608;29;20922;-79
2021/12/06 08:25:20;;;;;;;48.83;15.10;;;1.20;97.30;;;;;;4957121;28;20241;-79
2021/12/06 08:27:46;;;;;;;50.33;14.20;;;1.20;97.30;;;;;;4957165;28;20246;-79
2021/12/06 08:30:13;;;;;;;45.07;13.93;;;1.20;97.30;;;;;;4957918;29;20206;-79
2021/12/06 08:32:40;;;;;;;44.50;13.03;;;1.20;97.30;;;;;;4958965;28;20205;-80
2021/12/06 08:35:06;;;;;;;38.07;13.40;;;1.20;97.30;;;;;;4957432;28;20473;-78
2021/12/06 08:37:32;;;;;;;39.13;13.93;;;1.20;97.30;;;;;;4957437;28;20447;-79
2021/12/06 08:39:58;;;;;;;38.90;14.33;;;1.20;97.30;;;;;;4957004;29;20422;-76
2021/12/06 08:42:24;;;;;;;38.30;14.50;;;1.20;97.30;;;;;;4956734;29;20183;-78
2021/12/06 08:44:50;;;;;;;42.00;14.83;;;1.20;97.30;;;;;;4957639;29;20481;-82
2021/12/06 08:47:17;;;;;;;39.67;14.33;;;1.20;97.30;;;;;;4957461;28;20530;-79
2021/12/06 08:49:43;;;;;;;45.87;15.60;;;1.20;97.30;;;;;;4957382;29;20423;-80
2021/12/06 08:52:09;;;;;;;46.10;15.27;;;1.30;97.30;;;;;;4956969;29;20427;-78
2021/12/06 08:54:35;;;;;;;43.60;15.63;;;1.20;97.30;;;;;;4957041;29;20462;-78
2021/12/06 08:57:03;;;;;;;48.83;15.40;;;1.30;97.30;;;;;;4957042;28;20835;-79
2021/12/06 08:59:29;;;;;;;37.50;14.07;;;1.30;97.30;;;;;;4957212;28;20274;-80
2021/12/06 09:01:57;;;;;;;43.87;14.27;;;1.30;97.30;;;;;;4956759;28;20454;-79
2021/12/06 09:04:24;;;;;;;41.97;15.00;;;1.30;97.30;;;;;;4957011;28;20257;-80
2021/12/06 09:06:53;;;;;;;43.03;13.80;;;1.40;97.30;;;;;;4956534;28;20438;-79
2021/12/06 09:09:21;;;;;;;43.27;14.17;;;1.40;97.30;;;;;;4957500;28;20422;-79
2021/12/06 09:11:47;;;;;;;42.60;14.90;;;1.40;97.30;;;;;;4956706;28;20426;-78
2021/12/06 09:14:15;;;;;;;43.33;15.90;;;1.50;97.30;;;;;;4955355;28;20455;-79
2021/12/06 09:16:41;;;;;;;36.33;13.90;;;1.50;97.30;;;;;;4955073;28;20498;-79
2021/12/06 09:19:09;;;;;;;43.37;13.90;;;1.50;97.30;;;;;;4956083;28;20427;-78
2021/12/06 09:21:37;;;;;;;40.40;16.20;;;1.50;97.30;;;;;;4957207;29;20809;-76
2021/12/06 09:24:07;;;;;;;39.43;14.73;;;1.50;97.30;;;;;;4956347;28;20446;-79
2021/12/06 09:26:34;;;;;;;45.33;15.20;;;1.50;97.30;;;;;;4956985;28;20466;-79
2021/12/06 09:29:00;;;;;;;39.27;14.50;;;1.50;97.30;;;;;;4956121;28;20482;-78
2021/12/06 09:31:25;;;;;;;42.97;14.57;;;1.50;97.30;;;;;;4956384;28;20935;-77
2021/12/06 09:33:51;;;;;;;36.07;13.93;;;1.60;97.30;;;;;;4957083;28;20513;-80
2021/12/06 09:36:19;;;;;;;36.67;13.23;;;1.60;97.30;;;;;;4956338;28;20262;-79
2021/12/06 09:38:45;;;;;;;39.10;15.70;;;1.70;97.30;;;;;;4957898;28;20790;-79
2021/12/06 09:41:23;;;;;;;41.10;14.10;;;1.70;97.30;;;;;;4956621;28;20419;-79
2021/12/06 09:43:53;;;;;;;42.00;15.37;;;1.80;97.30;;;;;;4956754;29;20482;-81
2021/12/06 09:46:19;;;;;;;45.40;14.50;;;1.90;97.30;;;;;;4958006;28;20438;-81
2021/12/06 09:48:46;;;;;;;44.03;16.83;;;1.90;97.30;;;;;;4957092;28;20414;-79
2021/12/06 09:51:19;;;;;;;42.53;14.80;;;1.90;97.30;;;;;;4955955;28;20426;-79
2021/12/06 09:53:46;;;;;;;40.83;14.30;;;2.00;97.30;;;;;;4956044;29;20459;-80
2021/12/06 09:56:16;;;;;;;43.50;14.47;;;2.00;97.30;;;;;;4955394;28;20450;-79
2021/12/06 09:58:42;;;;;;;37.10;14.47;;;2.00;97.30;;;;;;4955787;29;20794;-79
2021/12/06 10:01:16;;;;;;;35.20;14.00;;;1.90;97.30;;;;;;4955249;29;20852;-79
2021/12/06 10:03:46;;;;;;;45.03;16.20;;;1.80;97.30;;;;;;4957323;28;20416;-80
2021/12/06 10:06:12;;;;;;;45.07;14.17;;;1.80;97.30;;;;;;4954879;28;20533;-78
2021/12/06 10:08:44;;;;;;;39.50;14.87;;;1.70;97.30;;;;;;4955343;28;20423;-77
2021/12/06 10:11:11;;;;;;;43.27;14.00;;;1.70;97.30;;;;;;4955790;28;20443;-79
2021/12/06 10:13:39;;;;;;;43.70;15.17;;;1.70;97.30;;;;;;4954769;28;20464;-79
2021/12/06 10:16:06;;;;;;;39.57;14.90;;;1.60;97.30;;;;;;4954841;28;20848;-79
2021/12/06 10:18:33;;;;;;;39.33;16.00;;;1.60;97.30;;;;;;4954912;28;20496;-78
2021/12/06 10:21:00;;;;;;;46.07;16.07;;;1.60;97.30;;;;;;4954745;28;20430;-79
2021/12/06 10:23:26;;;;;;;44.20;16.33;;;1.60;97.30;;;;;;4954723;29;20423;-78
2021/12/06 10:25:53;;;;;;;44.00;17.07;;;1.50;97.30;;;;;;4954144;28;20477;-78
2021/12/06 10:28:23;;;;;;;44.30;15.73;;;1.50;97.30;;;;;;4954278;28;20458;-78
2021/12/06 10:30:56;;;;;;;50.07;16.77;;;1.50;97.30;;;;;;4954396;28;20435;-79
2021/12/06 10:33:26;;;;;;;53.97;17.40;;;1.60;97.30;;;;;;4955139;28;20536;-79
2021/12/06 10:35:58;;;;;;;39.47;16.20;;;1.60;97.30;;;;;;4955502;28;20439;-78
2021/12/06 10:38:31;;;;;;;38.07;15.80;;;1.60;97.30;;;;;;4954292;28;20827;-77
2021/12/06 10:41:04;;;;;;;44.27;14.67;;;1.60;97.30;;;;;;4952281;28;20423;-77
2021/12/06 10:43:31;;;;;;;46.13;16.37;;;1.50;97.30;;;;;;4952189;28;20407;-77
2021/12/06 10:45:58;;;;;;;47.60;15.50;;;1.50;97.30;;;;;;4950952;28;20443;-77
2021/12/06 10:48:34;;;;;;;52.40;18.20;;;1.50;97.30;;;;;;4953070;28;20499;-78
2021/12/06 10:51:10;;;;;;;40.83;15.90;;;1.50;97.30;;;;;;4951584;28;20900;-77
2021/12/06 10:53:42;;;;;;;50.07;17.73;;;1.40;97.30;;;;;;4950247;28;20454;-77
2021/12/06 10:56:18;;;;;;;49.87;16.90;;;1.50;97.30;;;;;;4948614;28;20488;-76
2021/12/06 10:58:45;;;;;;;60.27;17.70;;;1.50;97.30;;;;;;4949919;29;20431;-75
2021/12/06 11:01:15;;;;;;;53.77;17.20;;;1.50;97.30;;;;;;4951555;28;20477;-77
2021/12/06 11:03:45;;;;;;;51.23;18.17;;;1.50;97.30;;;;;;4951298;29;20960;-77
2021/12/06 11:06:19;;;;;;;51.87;16.80;;;1.50;97.30;;;;;;4951687;28;20473;-77
2021/12/06 11:08:49;;;;;;;46.60;15.87;;;1.50;97.30;;;;;;4952989;28;20422;-77
2021/12/06 11:11:20;;;;;;;58.37;18.80;;;1.50;97.30;;;;;;4951828;29;20474;-77
2021/12/06 11:13:52;;;;;;;50.97;18.67;;;1.50;97.30;;;;;;4952820;28;20450;-78
2021/12/06 11:16:27;;;;;;;53.03;16.10;;;1.50;97.30;;;;;;4951146;28;20462;-75
2021/12/06 11:18:56;;;;;;;46.43;16.80;;;1.50;97.30;;;;;;4950939;28;20763;-78
2021/12/06 11:21:29;;;;;;;41.40;17.27;;;1.50;97.30;;;;;;4951469;29;20466;-77
2021/12/06 11:24:17;;;;;;;49.23;17.90;;;1.50;97.30;;;;;;4951511;28;20494;-77
2021/12/06 11:27:00;;;;;;;49.00;16.77;;;1.50;97.30;;;;;;4953921;28;20458;-78
2021/12/06 11:29:34;;;;;;;45.47;15.77;;;1.50;97.30;;;;;;4956096;28;20413;-77
2021/12/06 11:32:08;;;;;;;38.03;16.30;;;1.50;97.30;;;;;;4954813;28;20430;-77
2021/12/06 11:34:44;;;;;;;48.47;16.97;;;1.50;97.30;;;;;;4954725;29;20953;-77
2021/12/06 11:37:30;;;;;;;53.93;18.00;;;1.60;97.30;;;;;;4954523;28;20445;-76
2021/12/06 11:40:17;;;;;;;51.60;18.33;;;1.60;97.30;;;;;;4956190;28;20413;-77
2021/12/06 11:43:00;;;;;;;45.70;15.67;;;1.60;97.30;;;;;;4955711;28;20490;-77
2021/12/06 11:45:49;;;;;;;44.30;16.37;;;1.60;97.30;;;;;;4954260;28;20447;-77
2021/12/06 11:48:19;;;;;;;49.40;17.20;;;1.60;97.30;;;;;;4955137;28;20411;-77
2021/12/06 11:50:51;;;;;;;47.60;17.17;;;1.60;97.30;;;;;;4954199;29;20788;-76
2021/12/06 11:53:21;;;;;;;43.43;15.63;;;1.60;97.30;;;;;;4955305;28;20414;-76
2021/12/06 11:56:08;;;;;;;51.73;17.30;;;1.70;97.30;;;;;;4953965;28;20414;-77
2021/12/06 11:58:39;;;;;;;52.67;15.83;;;1.70;97.30;;;;;;4954125;29;20411;-76
2021/12/06 12:01:15;;;;;;;43.50;16.17;;;1.70;97.30;;;;;;4953512;28;20788;-76
2021/12/06 12:03:44;;;;;;;45.60;15.60;;;1.70;97.30;;;;;;4955173;28;20557;-77
2021/12/06 12:06:36;;;;;;;43.20;15.60;;;1.70;97.30;;;;;;4955297;28;20955;-77
2021/12/06 12:09:19;;;;;;;57.10;17.40;;;1.70;97.30;;;;;;4953912;29;20441;-77
2021/12/06 12:11:59;;;;;;;48.73;17.03;;;1.70;97.30;;;;;;4953916;29;20476;-77
2021/12/06 12:14:33;;;;;;;50.27;16.47;;;1.70;97.30;;;;;;4953561;29;20451;-77
2021/12/06 12:17:01;;;;;;;44.67;16.53;;;1.70;97.30;;;;;;4953687;28;20449;-76
2021/12/06 12:19:28;;;;;;;44.83;16.07;;;1.70;97.30;;;;;;4953534;28;20501;-76
2021/12/06 12:21:54;;;;;;;50.60;17.30;;;1.70;97.30;;;;;;4955077;28;20411;-77
2021/12/06 12:24:20;;;;;;;54.73;17.60;;;1.70;97.30;;;;;;4954596;28;20415;-77
2021/12/06 12:27:01;;;;;;;56.17;17.90;;;1.70;97.30;;;;;;4955054;28;20956;-77
2021/12/06 12:29:28;;;;;;;43.57;16.27;;;1.70;97.30;;;;;;4953900;28;20423;-76
2021/12/06 12:32:03;;;;;;;47.80;17.97;;;1.70;97.30;;;;;;4953971;28;20526;-77
2021/12/06 12:34:32;;;;;;;51.70;17.13;;;1.70;97.30;;;;;;4954020;29;20464;-77
2021/12/06 12:36:58;;;;;;;52.00;16.73;;;1.70;97.30;;;;;;4953476;28;20437;-77
2021/12/06 12:39:25;;;;;;;40.03;16.90;;;1.70;97.30;;;;;;4953568;29;20422;-76
2021/12/06 12:42:00;;;;;;;53.10;19.40;;;1.70;97.30;;;;;;4953887;28;20503;-77
2021/12/06 12:44:46;;;;;;;46.23;15.53;;;1.70;97.30;;;;;;4953658;29;20414;-77
2021/12/06 12:47:18;;;;;;;53.97;18.80;;;1.70;97.30;;;;;;4954800;28;20828;-76
2021/12/06 12:49:57;;;;;;;57.90;18.67;;;1.70;97.30;;;;;;4955078;28;20415;-77
2021/12/06 12:52:42;;;;;;;50.00;17.77;;;1.70;97.30;;;;;;4954853;28;20410;-77
2021/12/06 12:55:42;;;;;;;54.90;18.70;;;1.70;97.30;;;;;;4954704;28;20457;-77
2021/12/06 12:58:19;;;;;;;48.57;16.53;;;1.70;97.30;;;;;;4954814;28;20425;-77
2021/12/06 13:00:51;;;;;;;56.70;19.80;;;1.60;97.30;;;;;;4953981;29;20834;-77
2021/12/06 13:03:39;;;;;;;52.37;18.53;;;1.60;97.30;;;;;;4954680;28;20446;-78